sensor_id;sensor_type;location;lat;lon;timestamp;pressure;altitude;pressure_sealevel;temperature;humidity
30554;BME280;17335;50.720;7.452;2022-09-29T00:00:53;97777.50;;;6.53;100.00
30554;BME280;17335;50.720;7.452;2022-09-29T00:03:21;97774.78;;;6.45;100.00
30554;BME280;17335;50.720;7.452;2022-09-29T00:05:49;97776.72;;;6.34;100.00
30554;BME280;17335;50.720;7.452;2022-09-29T00:08:17;97780.06;;;6.36;100.00
30554;BME280;17335;50.720;7.452;2022-09-29T00:10:44;97779.03;;;6.29;100.00
30554;BME280;17335;50.720;7.452;2022-09-29T00:13:12;97773.34;;;6.24;100.00
30554;BME280;17335;50.720;7.452;2022-09-29T00:15:39;97776.16;;;6.23;100.00
30554;BME280;17335;50.720;7.452;2022-09-29T00:18:06;97778.28;;;6.19;100.00
30554;BME280;17335;50.720;7.452;2022-09-29T00:20:40;97776.53;;;6.10;100.00
30554;BME280;17335;50.720;7.452;2022-09-29T00:23:07;97775.56;;;6.11;100.00
30554;BME280;17335;50.720;7.452;2022-09-29T00:25:33;97780.88;;;6.11;100.00
30554;BME280;17335;50.720;7.452;2022-09-29T00:28:00;97777.03;;;6.05;100.00
30554;BME280;17335;50.720;7.452;2022-09-29T00:30:27;97783.78;;;5.99;100.00
30554;BME280;17335;50.720;7.452;2022-09-29T00:32:53;97777.38;;;5.92;100.00
30554;BME280;17335;50.720;7.452;2022-09-29T00:35:20;97768.84;;;5.89;100.00
30554;BME280;17335;50.720;7.452;2022-09-29T00:37:47;97776.03;;;5.88;100.00
30554;BME280;17335;50.720;7.452;2022-09-29T00:40:13;97770.16;;;5.85;100.00
30554;BME280;17335;50.720;7.452;2022-09-29T00:42:40;97771.97;;;5.84;100.00
30554;BME280;17335;50.720;7.452;2022-09-29T00:45:22;97767.31;;;5.86;100.00
30554;BME280;17335;50.720;7.452;2022-09-29T00:48:02;97771.81;;;5.86;100.00
30554;BME280;17335;50.720;7.452;2022-09-29T00:50:44;97772.44;;;5.79;100.00
30554;BME280;17335;50.720;7.452;2022-09-29T00:53:13;97768.47;;;5.83;100.00
30554;BME280;17335;50.720;7.452;2022-09-29T00:55:54;97777.94;;;5.78;100.00
30554;BME280;17335;50.720;7.452;2022-09-29T00:58:30;97778.53;;;5.72;100.00
30554;BME280;17335;50.720;7.452;2022-09-29T01:00:58;97774.34;;;5.69;100.00
30554;BME280;17335;50.720;7.452;2022-09-29T01:03:28;97776.94;;;5.61;100.00
30554;BME280;17335;50.720;7.452;2022-09-29T01:06:00;97776.09;;;5.60;100.00
30554;BME280;17335;50.720;7.452;2022-09-29T01:11:11;97775.50;;;5.49;100.00
30554;BME280;17335;50.720;7.452;2022-09-29T01:13:38;97785.22;;;5.40;100.00
30554;BME280;17335;50.720;7.452;2022-09-29T01:16:07;97775.75;;;5.28;100.00
30554;BME280;17335;50.720;7.452;2022-09-29T01:18:33;97777.88;;;5.24;100.00
30554;BME280;17335;50.720;7.452;2022-09-29T01:21:26;97773.56;;;5.23;100.00
30554;BME280;17335;50.720;7.452;2022-09-29T01:29:41;97773.31;;;5.16;100.00
30554;BME280;17335;50.720;7.452;2022-09-29T01:35:03;97785.22;;;5.12;100.00
30554;BME280;17335;50.720;7.452;2022-09-29T01:43:24;97786.63;;;4.88;100.00
30554;BME280;17335;50.720;7.452;2022-09-29T01:46:16;97788.56;;;4.86;100.00
30554;BME280;17335;50.720;7.452;2022-09-29T01:48:49;97790.84;;;4.81;100.00
30554;BME280;17335;50.720;7.452;2022-09-29T01:51:24;97792.81;;;4.79;100.00
30554;BME280;17335;50.720;7.452;2022-09-29T01:53:58;97796.47;;;4.78;100.00
30554;BME280;17335;50.720;7.452;2022-09-29T01:56:32;97796.88;;;4.74;100.00
30554;BME280;17335;50.720;7.452;2022-09-29T01:59:27;97793.25;;;4.75;100.00
30554;BME280;17335;50.720;7.452;2022-09-29T02:01:59;97799.16;;;4.68;100.00
30554;BME280;17335;50.720;7.452;2022-09-29T02:04:37;97787.53;;;4.69;100.00
30554;BME280;17335;50.720;7.452;2022-09-29T02:07:16;97793.69;;;4.70;100.00
30554;BME280;17335;50.720;7.452;2022-09-29T02:09:47;97793.97;;;4.67;100.00
30554;BME280;17335;50.720;7.452;2022-09-29T02:12:20;97784.91;;;4.60;100.00
30554;BME280;17335;50.720;7.452;2022-09-29T02:14:50;97785.88;;;4.59;100.00
30554;BME280;17335;50.720;7.452;2022-09-29T02:17:30;97784.78;;;4.61;100.00
30554;BME280;17335;50.720;7.452;2022-09-29T02:19:59;97786.19;;;4.56;100.00
30554;BME280;17335;50.720;7.452;2022-09-29T02:22:25;97787.16;;;4.55;100.00
30554;BME280;17335;50.720;7.452;2022-09-29T02:24:54;97794.84;;;4.58;100.00
30554;BME280;17335;50.720;7.452;2022-09-29T02:27:26;97793.78;;;4.50;100.00
30554;BME280;17335;50.720;7.452;2022-09-29T02:29:55;97788.75;;;4.47;100.00
30554;BME280;17335;50.720;7.452;2022-09-29T02:32:25;97794.34;;;4.44;100.00
30554;BME280;17335;50.720;7.452;2022-09-29T02:34:53;97793.78;;;4.41;100.00
30554;BME280;17335;50.720;7.452;2022-09-29T02:37:23;97794.06;;;4.38;100.00
30554;BME280;17335;50.720;7.452;2022-09-29T02:48:40;97783.78;;;4.25;100.00
30554;BME280;17335;50.720;7.452;2022-09-29T03:02:23;97794.41;;;4.05;100.00
30554;BME280;17335;50.720;7.452;2022-09-29T03:04:50;97806.16;;;4.03;100.00
30554;BME280;17335;50.720;7.452;2022-09-29T03:07:18;97802.81;;;4.01;100.00
30554;BME280;17335;50.720;7.452;2022-09-29T03:09:45;97795.97;;;3.98;100.00
30554;BME280;17335;50.720;7.452;2022-09-29T03:12:11;97795.53;;;3.93;100.00
30554;BME280;17335;50.720;7.452;2022-09-29T03:14:38;97791.75;;;4.05;100.00
30554;BME280;17335;50.720;7.452;2022-09-29T03:17:04;97788.56;;;3.92;100.00
30554;BME280;17335;50.720;7.452;2022-09-29T03:19:31;97788.84;;;3.89;100.00
30554;BME280;17335;50.720;7.452;2022-09-29T03:21:57;97793.16;;;3.90;100.00
30554;BME280;17335;50.720;7.452;2022-09-29T03:24:24;97793.03;;;3.91;100.00
30554;BME280;17335;50.720;7.452;2022-09-29T03:26:51;97789.94;;;3.86;100.00
30554;BME280;17335;50.720;7.452;2022-09-29T03:29:18;97793.75;;;3.84;100.00
30554;BME280;17335;50.720;7.452;2022-09-29T03:31:44;97798.34;;;3.72;100.00
30554;BME280;17335;50.720;7.452;2022-09-29T03:34:11;97788.84;;;3.69;100.00
30554;BME280;17335;50.720;7.452;2022-09-29T03:36:37;97783.38;;;3.71;100.00
30554;BME280;17335;50.720;7.452;2022-09-29T03:39:04;97797.78;;;3.68;100.00
30554;BME280;17335;50.720;7.452;2022-09-29T03:41:30;97792.75;;;3.65;100.00
30554;BME280;17335;50.720;7.452;2022-09-29T03:43:57;97787.44;;;3.65;100.00
30554;BME280;17335;50.720;7.452;2022-09-29T03:46:23;97800.84;;;3.64;100.00
30554;BME280;17335;50.720;7.452;2022-09-29T03:48:50;97804.34;;;3.64;100.00
30554;BME280;17335;50.720;7.452;2022-09-29T03:51:16;97795.69;;;3.62;100.00
30554;BME280;17335;50.720;7.452;2022-09-29T03:53:43;97797.63;;;3.60;100.00
30554;BME280;17335;50.720;7.452;2022-09-29T03:56:09;97802.53;;;3.55;100.00
30554;BME280;17335;50.720;7.452;2022-09-29T03:58:36;97808.22;;;3.50;100.00
30554;BME280;17335;50.720;7.452;2022-09-29T04:01:02;97813.97;;;3.46;100.00
30554;BME280;17335;50.720;7.452;2022-09-29T04:03:29;97816.34;;;3.39;100.00
30554;BME280;17335;50.720;7.452;2022-09-29T04:05:55;97819.81;;;3.40;100.00
30554;BME280;17335;50.720;7.452;2022-09-29T04:08:22;97824.69;;;3.34;100.00
30554;BME280;17335;50.720;7.452;2022-09-29T04:10:48;97820.34;;;3.33;100.00
30554;BME280;17335;50.720;7.452;2022-09-29T04:13:15;97818.28;;;3.37;100.00
30554;BME280;17335;50.720;7.452;2022-09-29T04:15:46;97823.59;;;3.37;100.00
30554;BME280;17335;50.720;7.452;2022-09-29T04:18:12;97819.81;;;3.40;100.00
30554;BME280;17335;50.720;7.452;2022-09-29T04:20:39;97827.34;;;3.34;100.00
30554;BME280;17335;50.720;7.452;2022-09-29T04:23:05;97822.03;;;3.34;100.00
30554;BME280;17335;50.720;7.452;2022-09-29T04:25:32;97820.94;;;3.37;100.00
30554;BME280;17335;50.720;7.452;2022-09-29T04:27:59;97824.56;;;3.36;100.00
30554;BME280;17335;50.720;7.452;2022-09-29T04:30:26;97825.53;;;3.35;100.00
30554;BME280;17335;50.720;7.452;2022-09-29T04:32:53;97823.00;;;3.33;100.00
30554;BME280;17335;50.720;7.452;2022-09-29T04:35:20;97825.09;;;3.30;100.00
30554;BME280;17335;50.720;7.452;2022-09-29T04:37:46;97834.03;;;3.29;100.00
30554;BME280;17335;50.720;7.452;2022-09-29T04:40:13;97830.81;;;3.25;100.00
30554;BME280;17335;50.720;7.452;2022-09-29T04:42:39;97831.53;;;3.27;100.00
30554;BME280;17335;50.720;7.452;2022-09-29T04:45:06;97833.88;;;3.21;100.00
30554;BME280;17335;50.720;7.452;2022-09-29T04:47:32;97828.00;;;3.17;100.00
30554;BME280;17335;50.720;7.452;2022-09-29T04:49:59;97829.81;;;3.16;100.00
30554;BME280;17335;50.720;7.452;2022-09-29T04:52:25;97831.22;;;3.21;100.00
30554;BME280;17335;50.720;7.452;2022-09-29T04:54:52;97828.44;;;3.22;100.00
30554;BME280;17335;50.720;7.452;2022-09-29T04:57:18;97826.75;;;3.21;100.00
30554;BME280;17335;50.720;7.452;2022-09-29T04:59:45;97832.91;;;3.22;100.00
30554;BME280;17335;50.720;7.452;2022-09-29T05:02:11;97830.97;;;3.24;100.00
30554;BME280;17335;50.720;7.452;2022-09-29T05:04:38;97834.00;;;3.19;100.00
30554;BME280;17335;50.720;7.452;2022-09-29T05:07:05;97830.66;;;3.17;100.00
30554;BME280;17335;50.720;7.452;2022-09-29T05:09:31;97837.63;;;3.18;100.00
30554;BME280;17335;50.720;7.452;2022-09-29T05:12:00;97829.97;;;3.15;100.00
30554;BME280;17335;50.720;7.452;2022-09-29T05:14:26;97837.34;;;3.11;100.00
30554;BME280;17335;50.720;7.452;2022-09-29T05:16:54;97843.75;;;3.09;100.00
30554;BME280;17335;50.720;7.452;2022-09-29T05:19:21;97844.72;;;3.08;100.00
30554;BME280;17335;50.720;7.452;2022-09-29T05:21:47;97840.25;;;3.08;100.00
30554;BME280;17335;50.720;7.452;2022-09-29T05:24:14;97847.09;;;3.11;100.00
30554;BME280;17335;50.720;7.452;2022-09-29T05:26:41;97847.22;;;3.09;100.00
30554;BME280;17335;50.720;7.452;2022-09-29T05:29:07;97857.69;;;3.01;100.00
30554;BME280;17335;50.720;7.452;2022-09-29T05:31:35;97856.50;;;2.94;100.00
30554;BME280;17335;50.720;7.452;2022-09-29T05:34:01;97860.03;;;2.94;100.00
30554;BME280;17335;50.720;7.452;2022-09-29T05:36:28;97863.38;;;2.96;100.00
30554;BME280;17335;50.720;7.452;2022-09-29T05:38:54;97864.06;;;2.98;100.00
30554;BME280;17335;50.720;7.452;2022-09-29T05:41:21;97868.81;;;2.95;100.00
30554;BME280;17335;50.720;7.452;2022-09-29T05:43:49;97872.84;;;2.99;100.00
30554;BME280;17335;50.720;7.452;2022-09-29T05:46:16;97866.47;;;3.02;100.00
30554;BME280;17335;50.720;7.452;2022-09-29T05:48:48;97869.94;;;3.02;100.00
30554;BME280;17335;50.720;7.452;2022-09-29T05:51:16;97875.69;;;3.07;100.00
30554;BME280;17335;50.720;7.452;2022-09-29T05:53:49;97876.94;;;3.13;100.00
30554;BME280;17335;50.720;7.452;2022-09-29T05:56:17;97882.00;;;3.16;100.00
30554;BME280;17335;50.720;7.452;2022-09-29T05:58:44;97878.13;;;3.20;100.00
30554;BME280;17335;50.720;7.452;2022-09-29T06:01:22;97884.00;;;3.24;100.00
30554;BME280;17335;50.720;7.452;2022-09-29T06:03:49;97882.44;;;3.21;100.00
30554;BME280;17335;50.720;7.452;2022-09-29T06:06:21;97885.34;;;3.18;100.00
30554;BME280;17335;50.720;7.452;2022-09-29T06:08:49;97883.00;;;3.15;100.00
30554;BME280;17335;50.720;7.452;2022-09-29T06:11:23;97880.91;;;3.18;100.00
30554;BME280;17335;50.720;7.452;2022-09-29T06:13:51;97879.25;;;3.27;100.00
30554;BME280;17335;50.720;7.452;2022-09-29T06:16:21;97885.69;;;3.34;100.00
30554;BME280;17335;50.720;7.452;2022-09-29T06:18:48;97890.91;;;3.46;100.00
30554;BME280;17335;50.720;7.452;2022-09-29T06:21:21;97883.50;;;3.49;100.00
30554;BME280;17335;50.720;7.452;2022-09-29T06:23:49;97888.25;;;3.55;100.00
30554;BME280;17335;50.720;7.452;2022-09-29T06:26:18;97884.25;;;3.61;100.00
30554;BME280;17335;50.720;7.452;2022-09-29T06:28:49;97898.06;;;3.65;100.00
30554;BME280;17335;50.720;7.452;2022-09-29T06:31:18;97889.28;;;3.74;100.00
30554;BME280;17335;50.720;7.452;2022-09-29T06:33:45;97894.19;;;3.79;100.00
30554;BME280;17335;50.720;7.452;2022-09-29T06:36:17;97895.84;;;3.89;100.00
30554;BME280;17335;50.720;7.452;2022-09-29T06:39:06;97886.91;;;4.00;100.00
30554;BME280;17335;50.720;7.452;2022-09-29T06:41:33;97899.34;;;4.00;100.00
30554;BME280;17335;50.720;7.452;2022-09-29T06:44:00;97901.72;;;3.93;100.00
30554;BME280;17335;50.720;7.452;2022-09-29T06:46:27;97903.13;;;3.87;100.00
30554;BME280;17335;50.720;7.452;2022-09-29T06:48:54;97901.72;;;3.93;100.00
30554;BME280;17335;50.720;7.452;2022-09-29T06:51:22;97906.19;;;4.02;100.00
30554;BME280;17335;50.720;7.452;2022-09-29T06:53:57;97901.91;;;4.11;100.00
30554;BME280;17335;50.720;7.452;2022-09-29T06:56:37;97912.63;;;4.19;100.00
30554;BME280;17335;50.720;7.452;2022-09-29T06:59:03;97905.09;;;4.24;100.00
30554;BME280;17335;50.720;7.452;2022-09-29T07:01:30;97906.91;;;4.24;100.00
30554;BME280;17335;50.720;7.452;2022-09-29T07:03:56;97906.22;;;4.31;100.00
30554;BME280;17335;50.720;7.452;2022-09-29T07:06:25;97912.09;;;4.35;100.00
30554;BME280;17335;50.720;7.452;2022-09-29T07:08:56;97898.38;;;4.40;100.00
30554;BME280;17335;50.720;7.452;2022-09-29T07:11:24;97911.09;;;4.46;100.00
30554;BME280;17335;50.720;7.452;2022-09-29T07:13:52;97899.06;;;4.51;100.00
30554;BME280;17335;50.720;7.452;2022-09-29T07:16:21;97911.78;;;4.58;100.00
30554;BME280;17335;50.720;7.452;2022-09-29T07:18:51;97906.88;;;4.63;100.00
30554;BME280;17335;50.720;7.452;2022-09-29T07:21:18;97899.19;;;4.69;100.00
30554;BME280;17335;50.720;7.452;2022-09-29T07:23:45;97900.41;;;4.75;100.00
30554;BME280;17335;50.720;7.452;2022-09-29T07:26:14;97901.94;;;4.87;100.00
30554;BME280;17335;50.720;7.452;2022-09-29T07:28:42;97908.88;;;4.98;100.00
30554;BME280;17335;50.720;7.452;2022-09-29T07:31:12;97910.00;;;5.05;100.00
30554;BME280;17335;50.720;7.452;2022-09-29T07:33:42;97910.84;;;5.06;100.00
30554;BME280;17335;50.720;7.452;2022-09-29T07:36:08;97917.25;;;5.13;100.00
30554;BME280;17335;50.720;7.452;2022-09-29T07:38:35;97915.66;;;5.20;100.00
30554;BME280;17335;50.720;7.452;2022-09-29T07:41:06;97924.25;;;5.14;100.00
30554;BME280;17335;50.720;7.452;2022-09-29T07:43:33;97924.25;;;5.14;100.00
30554;BME280;17335;50.720;7.452;2022-09-29T07:46:00;97924.94;;;5.16;100.00
30554;BME280;17335;50.720;7.452;2022-09-29T07:48:27;97925.63;;;5.18;100.00
30554;BME280;17335;50.720;7.452;2022-09-29T07:51:01;97921.69;;;5.22;100.00
30554;BME280;17335;50.720;7.452;2022-09-29T07:53:29;97923.47;;;5.32;100.00
30554;BME280;17335;50.720;7.452;2022-09-29T07:56:01;97927.09;;;5.40;100.00
30554;BME280;17335;50.720;7.452;2022-09-29T07:58:29;97925.06;;;5.52;100.00
30554;BME280;17335;50.720;7.452;2022-09-29T08:00:58;97921.22;;;5.64;100.00
30554;BME280;17335;50.720;7.452;2022-09-29T08:03:24;97931.44;;;5.69;100.00
30554;BME280;17335;50.720;7.452;2022-09-29T08:05:52;97926.72;;;5.81;100.00
30554;BME280;17335;50.720;7.452;2022-09-29T08:08:19;97936.47;;;6.00;100.00
30554;BME280;17335;50.720;7.452;2022-09-29T08:10:45;97943.78;;;6.16;100.00
30554;BME280;17335;50.720;7.452;2022-09-29T08:13:18;97953.75;;;6.32;100.00
30554;BME280;17335;50.720;7.452;2022-09-29T08:15:46;97939.34;;;6.43;100.00
30554;BME280;17335;50.720;7.452;2022-09-29T08:18:12;97943.78;;;6.52;100.00
30554;BME280;17335;50.720;7.452;2022-09-29T08:20:39;97951.66;;;6.62;100.00
30554;BME280;17335;50.720;7.452;2022-09-29T08:23:05;97955.09;;;6.72;100.00
30554;BME280;17335;50.720;7.452;2022-09-29T08:25:32;97955.69;;;6.84;100.00
30554;BME280;17335;50.720;7.452;2022-09-29T08:28:00;97957.47;;;7.01;100.00
30554;BME280;17335;50.720;7.452;2022-09-29T08:30:28;97952.97;;;7.28;100.00
30554;BME280;17335;50.720;7.452;2022-09-29T08:32:54;97958.22;;;7.38;100.00
30554;BME280;17335;50.720;7.452;2022-09-29T08:35:22;97956.09;;;7.49;100.00
30554;BME280;17335;50.720;7.452;2022-09-29T08:37:49;97966.69;;;7.67;100.00
30554;BME280;17335;50.720;7.452;2022-09-29T08:40:15;97968.59;;;7.83;100.00
30554;BME280;17335;50.720;7.452;2022-09-29T08:45:31;97952.50;;;8.18;100.00
30554;BME280;17335;50.720;7.452;2022-09-29T08:48:11;97957.88;;;8.34;100.00
30554;BME280;17335;50.720;7.452;2022-09-29T08:50:57;97952.56;;;8.51;100.00
30554;BME280;17335;50.720;7.452;2022-09-29T08:53:26;97958.09;;;8.49;100.00
30554;BME280;17335;50.720;7.452;2022-09-29T08:56:09;97956.78;;;8.61;100.00
30554;BME280;17335;50.720;7.452;2022-09-29T08:58:38;97949.25;;;8.73;100.00
30554;BME280;17335;50.720;7.452;2022-09-29T09:01:38;97957.09;;;8.91;100.00
30554;BME280;17335;50.720;7.452;2022-09-29T09:09:37;97949.00;;;9.32;100.00
30554;BME280;17335;50.720;7.452;2022-09-29T09:14:55;97958.31;;;9.53;100.00
30554;BME280;17335;50.720;7.452;2022-09-29T09:20:31;97958.00;;;9.48;100.00
30554;BME280;17335;50.720;7.452;2022-09-29T09:23:07;97964.84;;;9.58;100.00
30554;BME280;17335;50.720;7.452;2022-09-29T09:25:54;97957.59;;;9.67;100.00
30554;BME280;17335;50.720;7.452;2022-09-29T09:28:30;97966.66;;;9.66;100.00
30554;BME280;17335;50.720;7.452;2022-09-29T09:31:08;97963.59;;;9.77;100.00
30554;BME280;17335;50.720;7.452;2022-09-29T09:36:32;97961.84;;;9.93;100.00
30554;BME280;17335;50.720;7.452;2022-09-29T09:39:04;97962.47;;;10.03;100.00
30554;BME280;17335;50.720;7.452;2022-09-29T09:41:34;97962.09;;;10.14;100.00
30554;BME280;17335;50.720;7.452;2022-09-29T09:52:50;97947.47;;;10.48;100.00
30554;BME280;17335;50.720;7.452;2022-09-29T09:54:57;97954.81;;;10.55;100.00
30554;BME280;17335;50.720;7.452;2022-09-29T09:57:27;97952.72;;;10.65;100.00
30554;BME280;17335;50.720;7.452;2022-09-29T10:02:31;97939.66;;;10.85;100.00
30554;BME280;17335;50.720;7.452;2022-09-29T10:04:58;97941.53;;;10.99;100.00
30554;BME280;17335;50.720;7.452;2022-09-29T10:07:27;97941.41;;;11.16;100.00
30554;BME280;17335;50.720;7.452;2022-09-29T10:09:55;97944.34;;;11.36;100.00
30554;BME280;17335;50.720;7.452;2022-09-29T10:12:23;97944.28;;;11.44;100.00
30554;BME280;17335;50.720;7.452;2022-09-29T10:15:03;97939.66;;;11.53;100.00
30554;BME280;17335;50.720;7.452;2022-09-29T10:17:36;97935.66;;;11.63;100.00
30554;BME280;17335;50.720;7.452;2022-09-29T10:20:06;97935.28;;;11.67;100.00
30554;BME280;17335;50.720;7.452;2022-09-29T10:22:34;97936.38;;;11.87;100.00
30554;BME280;17335;50.720;7.452;2022-09-29T10:27:46;97938.13;;;12.10;100.00
30554;BME280;17335;50.720;7.452;2022-09-29T10:30:30;97932.81;;;12.16;100.00
30554;BME280;17335;50.720;7.452;2022-09-29T10:33:01;97932.78;;;12.31;100.00
30554;BME280;17335;50.720;7.452;2022-09-29T10:35:32;97932.34;;;12.28;100.00
30554;BME280;17335;50.720;7.452;2022-09-29T10:38:24;97921.91;;;12.40;100.00
30554;BME280;17335;50.720;7.452;2022-09-29T10:43:31;97924.06;;;12.51;100.00
30554;BME280;17335;50.720;7.452;2022-09-29T10:46:00;97931.66;;;12.62;100.00
30554;BME280;17335;50.720;7.452;2022-09-29T10:48:26;97930.09;;;12.74;100.00
30554;BME280;17335;50.720;7.452;2022-09-29T10:51:04;97925.59;;;12.82;100.00
30554;BME280;17335;50.720;7.452;2022-09-29T10:53:36;97924.19;;;12.86;100.00
30554;BME280;17335;50.720;7.452;2022-09-29T10:56:24;97927.38;;;12.96;100.00
30554;BME280;17335;50.720;7.452;2022-09-29T10:58:57;97923.28;;;13.00;100.00
30554;BME280;17335;50.720;7.452;2022-09-29T11:01:34;97913.81;;;13.11;100.00
30554;BME280;17335;50.720;7.452;2022-09-29T11:04:17;97924.59;;;13.32;100.00
30554;BME280;17335;50.720;7.452;2022-09-29T11:06:45;97919.47;;;13.44;100.00
30554;BME280;17335;50.720;7.452;2022-09-29T11:11:52;97912.31;;;13.65;100.00
30554;BME280;17335;50.720;7.452;2022-09-29T11:17:18;97922.19;;;13.86;100.00
30554;BME280;17335;50.720;7.452;2022-09-29T11:19:45;97919.09;;;13.96;100.00
30554;BME280;17335;50.720;7.452;2022-09-29T11:33:45;97910.50;;;14.40;100.00
30554;BME280;17335;50.720;7.452;2022-09-29T11:39:23;97905.75;;;14.56;100.00
30554;BME280;17335;50.720;7.452;2022-09-29T11:44:58;97900.81;;;14.66;100.00
30554;BME280;17335;50.720;7.452;2022-09-29T11:50:36;97912.88;;;14.63;100.00
30554;BME280;17335;50.720;7.452;2022-09-29T11:53:16;97909.13;;;14.71;100.00
30554;BME280;17335;50.720;7.452;2022-09-29T11:55:50;97907.41;;;14.50;100.00
30554;BME280;17335;50.720;7.452;2022-09-29T11:58:44;97921.28;;;14.40;100.00
30554;BME280;17335;50.720;7.452;2022-09-29T12:01:28;97916.31;;;14.37;100.00
30554;BME280;17335;50.720;7.452;2022-09-29T12:04:16;97926.06;;;14.32;100.00
30554;BME280;17335;50.720;7.452;2022-09-29T12:06:55;97912.72;;;14.10;100.00
30554;BME280;17335;50.720;7.452;2022-09-29T12:10:00;97919.53;;;13.99;100.00
30554;BME280;17335;50.720;7.452;2022-09-29T12:12:48;97918.94;;;14.11;100.00
30554;BME280;17335;50.720;7.452;2022-09-29T12:16:00;97905.34;;;14.39;100.00
30554;BME280;17335;50.720;7.452;2022-09-29T12:18:36;97919.38;;;14.21;100.00
30554;BME280;17335;50.720;7.452;2022-09-29T12:21:07;97928.47;;;14.00;100.00
30554;BME280;17335;50.720;7.452;2022-09-29T12:23:43;97922.81;;;13.88;100.00
30554;BME280;17335;50.720;7.452;2022-09-29T12:26:20;97921.91;;;13.74;100.00
30554;BME280;17335;50.720;7.452;2022-09-29T12:29:10;97922.06;;;13.66;100.00
30554;BME280;17335;50.720;7.452;2022-09-29T12:31:44;97931.59;;;13.62;100.00
30554;BME280;17335;50.720;7.452;2022-09-29T12:34:16;97922.00;;;13.53;100.00
30554;BME280;17335;50.720;7.452;2022-09-29T12:36:49;97920.50;;;13.43;100.00
30554;BME280;17335;50.720;7.452;2022-09-29T12:42:58;97923.19;;;13.43;100.00
30554;BME280;17335;50.720;7.452;2022-09-29T12:48:18;97928.53;;;13.37;100.00
30554;BME280;17335;50.720;7.452;2022-09-29T12:50:53;97931.97;;;13.30;100.00
30554;BME280;17335;50.720;7.452;2022-09-29T12:53:30;97935.09;;;13.27;100.00
30554;BME280;17335;50.720;7.452;2022-09-29T12:56:18;97942.50;;;13.19;100.00
30554;BME280;17335;50.720;7.452;2022-09-29T12:58:52;97937.50;;;13.16;100.00
30554;BME280;17335;50.720;7.452;2022-09-29T13:01:30;97928.97;;;13.12;100.00
30554;BME280;17335;50.720;7.452;2022-09-29T13:12:32;97931.06;;;13.17;100.00
30554;BME280;17335;50.720;7.452;2022-09-29T13:21:28;97937.53;;;13.22;100.00
30554;BME280;17335;50.720;7.452;2022-09-29T13:29:04;97936.22;;;13.75;100.00
30554;BME280;17335;50.720;7.452;2022-09-29T13:31:37;97927.66;;;14.13;100.00
30554;BME280;17335;50.720;7.452;2022-09-29T13:34:05;97925.25;;;14.38;100.00
30554;BME280;17335;50.720;7.452;2022-09-29T13:36:36;97927.00;;;14.66;100.00
30554;BME280;17335;50.720;7.452;2022-09-29T13:39:06;97925.34;;;14.78;100.00
30554;BME280;17335;50.720;7.452;2022-09-29T13:41:36;97928.25;;;14.90;100.00
30554;BME280;17335;50.720;7.452;2022-09-29T13:44:19;97924.72;;;14.82;100.00
30554;BME280;17335;50.720;7.452;2022-09-29T13:46:50;97926.59;;;15.02;100.00
30554;BME280;17335;50.720;7.452;2022-09-29T13:54:32;97928.66;;;14.67;100.00
30554;BME280;17335;50.720;7.452;2022-09-29T14:02:46;97921.94;;;14.36;100.00
30554;BME280;17335;50.720;7.452;2022-09-29T14:08:17;97927.41;;;14.62;100.00
30554;BME280;17335;50.720;7.452;2022-09-29T14:10:56;97921.59;;;14.79;100.00
30554;BME280;17335;50.720;7.452;2022-09-29T14:13:27;97937.41;;;14.82;100.00
30554;BME280;17335;50.720;7.452;2022-09-29T14:18:50;97938.66;;;15.06;100.00
30554;BME280;17335;50.720;7.452;2022-09-29T14:21:50;97946.16;;;14.97;100.00
30554;BME280;17335;50.720;7.452;2022-09-29T14:29:54;97945.31;;;15.04;100.00
30554;BME280;17335;50.720;7.452;2022-09-29T14:32:37;97945.50;;;15.09;100.00
30554;BME280;17335;50.720;7.452;2022-09-29T14:35:16;97948.00;;;15.10;100.00
30554;BME280;17335;50.720;7.452;2022-09-29T14:37:49;97952.78;;;15.15;100.00
30554;BME280;17335;50.720;7.452;2022-09-29T14:40:18;97954.88;;;15.06;100.00
30554;BME280;17335;50.720;7.452;2022-09-29T14:43:16;97951.31;;;15.06;100.00
30554;BME280;17335;50.720;7.452;2022-09-29T14:52:24;97956.31;;;15.15;100.00
30554;BME280;17335;50.720;7.452;2022-09-29T14:55:00;97968.38;;;15.26;100.00
30554;BME280;17335;50.720;7.452;2022-09-29T14:57:58;97964.84;;;15.26;100.00
30554;BME280;17335;50.720;7.452;2022-09-29T15:00:25;97969.44;;;15.25;100.00
30554;BME280;17335;50.720;7.452;2022-09-29T15:02:55;97979.19;;;14.99;100.00
30554;BME280;17335;50.720;7.452;2022-09-29T15:05:42;97973.16;;;14.91;100.00
30554;BME280;17335;50.720;7.452;2022-09-29T15:08:44;97981.28;;;14.97;100.00
30554;BME280;17335;50.720;7.452;2022-09-29T15:11:33;97980.63;;;15.02;100.00
30554;BME280;17335;50.720;7.452;2022-09-29T15:14:20;97980.59;;;14.69;100.00
30554;BME280;17335;50.720;7.452;2022-09-29T15:16:58;97985.44;;;14.32;100.00
30554;BME280;17335;50.720;7.452;2022-09-29T15:27:19;97998.03;;;13.41;100.00
30554;BME280;17335;50.720;7.452;2022-09-29T15:29:47;97991.97;;;13.32;100.00
30554;BME280;17335;50.720;7.452;2022-09-29T15:32:23;97993.03;;;13.38;100.00
30554;BME280;17335;50.720;7.452;2022-09-29T15:34:51;97998.75;;;13.57;100.00
30554;BME280;17335;50.720;7.452;2022-09-29T15:37:21;97992.94;;;13.88;100.00
30554;BME280;17335;50.720;7.452;2022-09-29T15:39:50;97994.88;;;14.07;100.00
30554;BME280;17335;50.720;7.452;2022-09-29T15:42:20;98001.78;;;14.17;100.00
30554;BME280;17335;50.720;7.452;2022-09-29T15:44:58;98000.16;;;14.22;100.00
30554;BME280;17335;50.720;7.452;2022-09-29T15:47:34;97999.56;;;14.27;100.00
30554;BME280;17335;50.720;7.452;2022-09-29T15:50:05;98002.88;;;14.29;100.00
30554;BME280;17335;50.720;7.452;2022-09-29T15:52:41;98009.94;;;14.23;100.00
30554;BME280;17335;50.720;7.452;2022-09-29T15:55:13;98010.66;;;14.04;100.00
30554;BME280;17335;50.720;7.452;2022-09-29T15:57:43;98015.00;;;13.70;100.00
30554;BME280;17335;50.720;7.452;2022-09-29T16:05:36;98037.31;;;13.29;100.00